Time;durP1;ratioP1;P1;durP2;ratioP2;P2;SDS_P1;SDS_P2;PMS_P1;PMS_P2;Temp;Humidity;BMP_temperature;BMP_pressure;BME280_temperature;BME280_humidity;BME280_pressure;Samples;Min_cycle;Max_cycle;Signal;HPM_P1;HPM_P2
2021/11/11 00:00:36;;;;;;;;;;;;;;;21.20;56.77;101633.41;2068245;28;854;-63
2021/11/11 00:01:37;;;;;;;;;;;;;;;21.19;56.21;101637.91;2067908;28;990;-62
2021/11/11 00:02:37;;;;;;;;;;;;;;;21.18;56.74;101634.34;2068266;28;839;-63
2021/11/11 00:03:37;;;;;;;;;;;;;;;21.18;56.81;101637.03;2068267;28;966;-62
2021/11/11 00:04:37;;;;;;;;;;;;;;;21.16;56.17;101641.56;2068237;28;765;-63
2021/11/11 00:05:37;;;;;;;;;;;;;;;21.17;55.79;101639.75;2068210;28;769;-62
2021/11/11 00:06:39;;;;;;;;;;;;;;;21.17;56.42;101637.03;2068082;28;804;-63
2021/11/11 00:07:39;;;;;;;;;;;;;;;21.15;57.29;101641.59;2068131;28;894;-63
2021/11/11 00:08:39;;;;;;;;;;;;;;;21.14;56.05;101642.50;2068228;28;1120;-63
2021/11/11 00:09:40;;;;;;;;;;;;;;;21.14;56.18;101639.81;2068056;28;860;-63
2021/11/11 00:10:41;;;;;;;;;;;;;;;21.14;56.58;101637.13;2068165;28;977;-63
2021/11/11 00:11:42;;;;;;;;;;;;;;;21.13;57.18;101629.94;2068149;28;807;-63
2021/11/11 00:12:43;;;;;;;;;;;;;;;21.13;56.58;101629.94;2068000;28;823;-63
2021/11/11 00:13:43;;;;;;;;;;;;;;;21.13;56.40;101629.94;2068048;28;1471;-62
2021/11/11 00:14:43;;;;;;;;;;;;;;;21.11;56.12;101635.38;2068103;28;851;-63
2021/11/11 00:15:43;;;;;;;;;;;;;;;21.13;56.26;101627.25;2067926;28;978;-63
2021/11/11 00:16:43;;;;;;;;;;;;;;;21.14;55.87;101623.66;2068136;28;831;-63
2021/11/11 00:17:44;;;;;;;;;;;;;;;21.15;56.02;101626.31;2068033;28;1890;-62
2021/11/11 00:18:44;;;;;;;;;;;;;;;21.15;56.81;101633.50;2067921;28;834;-63
2021/11/11 00:19:44;;;;;;;;;;;;;;;21.11;56.06;101632.69;2068053;28;848;-63
2021/11/11 00:20:45;;;;;;;;;;;;;;;21.11;57.20;101638.09;2068114;28;800;-63
2021/11/11 00:21:45;;;;;;;;;;;;;;;21.13;55.63;101643.41;2067924;28;1285;-63
2021/11/11 00:22:46;;;;;;;;;;;;;;;21.13;56.25;101644.31;2068100;28;1020;-62
2021/11/11 00:23:46;;;;;;;;;;;;;;;21.11;56.71;101650.66;2067864;28;788;-63
2021/11/11 00:24:46;;;;;;;;;;;;;;;21.08;57.31;101651.63;2068114;28;1140;-63
2021/11/11 00:25:46;;;;;;;;;;;;;;;21.11;56.81;101650.66;2068046;28;780;-62
2021/11/11 00:26:47;;;;;;;;;;;;;;;21.11;56.22;101647.97;2067639;28;982;-63
2021/11/11 00:27:47;;;;;;;;;;;;;;;21.10;56.45;101639.00;2067863;28;812;-63
2021/11/11 00:28:49;;;;;;;;;;;;;;;21.11;56.14;101627.31;2068126;28;859;-63
2021/11/11 00:29:49;;;;;;;;;;;;;;;21.11;56.64;101634.50;2068108;28;854;-63
2021/11/11 00:30:50;;;;;;;;;;;;;;;21.10;56.48;101625.53;2068056;28;977;-63
2021/11/11 00:31:50;;;;;;;;;;;;;;;21.09;56.67;101626.47;2068060;28;792;-62
2021/11/11 00:32:51;;;;;;;;;;;;;;;21.08;56.59;101624.69;2068048;28;800;-63
2021/11/11 00:33:52;;;;;;;;;;;;;;;21.03;56.81;101626.59;2068050;28;815;-63
2021/11/11 00:34:53;;;;;;;;;;;;;;;21.03;56.56;101630.16;2067929;28;776;-63
2021/11/11 00:35:53;;;;;;;;;;;;;;;21.02;56.77;101624.81;2068068;28;881;-63
2021/11/11 00:36:53;;;;;;;;;;;;;;;21.01;56.61;101629.31;2067844;28;931;-63
2021/11/11 00:37:57;;;;;;;;;;;;;;;21.03;57.20;101624.78;2069972;28;1890;-63
2021/11/11 00:38:58;;;;;;;;;;;;;;;21.01;57.42;101629.31;2076210;28;885;-63
2021/11/11 00:39:58;;;;;;;;;;;;;;;21.01;57.22;101628.44;2076089;28;854;-63
2021/11/11 00:40:59;;;;;;;;;;;;;;;21.01;56.58;101633.81;2076056;28;898;-63
2021/11/11 00:41:59;;;;;;;;;;;;;;;21.01;57.29;101634.69;2075919;28;858;-63
2021/11/11 00:43:00;;;;;;;;;;;;;;;21.00;57.07;101642.81;2075830;28;795;-63
2021/11/11 00:44:00;;;;;;;;;;;;;;;21.02;57.39;101632.91;2076071;28;1109;-63
2021/11/11 00:45:00;;;;;;;;;;;;;;;21.04;56.50;101633.75;2076029;28;771;-63
2021/11/11 00:46:01;;;;;;;;;;;;;;;21.00;56.62;101630.22;2076026;28;989;-63
2021/11/11 00:47:01;;;;;;;;;;;;;;;20.99;57.11;101632.97;2076029;28;1040;-63
2021/11/11 00:48:01;;;;;;;;;;;;;;;20.97;56.99;101630.28;2075775;28;1120;-63
2021/11/11 00:49:06;;;;;;;;;;;;;;;20.98;57.23;101628.50;2075974;28;796;-63
2021/11/11 00:50:07;;;;;;;;;;;;;;;20.97;57.18;101638.38;2075934;28;878;-63
2021/11/11 00:51:07;;;;;;;;;;;;;;;20.99;57.79;101641.06;2075891;28;1101;-62
2021/11/11 00:52:08;;;;;;;;;;;;;;;20.99;56.69;101643.75;2075373;28;862;-63
2021/11/11 00:53:08;;;;;;;;;;;;;;;20.98;57.03;101639.28;2075828;28;838;-62
2021/11/11 00:54:08;;;;;;;;;;;;;;;20.96;57.56;101636.59;2075890;28;1024;-63
2021/11/11 00:55:10;;;;;;;;;;;;;;;20.98;57.30;101637.47;2076031;28;989;-63
2021/11/11 00:56:11;;;;;;;;;;;;;;;20.98;57.00;101634.75;2075607;28;1276;-63
2021/11/11 00:57:11;;;;;;;;;;;;;;;20.99;56.93;101636.53;2076043;28;854;-63
2021/11/11 00:58:11;;;;;;;;;;;;;;;20.98;56.83;101634.75;2075774;28;1907;-63
2021/11/11 00:59:12;;;;;;;;;;;;;;;20.97;56.68;101633.00;2075678;28;977;-63
2021/11/11 01:00:13;;;;;;;;;;;;;;;20.97;56.90;101634.81;2075910;28;810;-63
2021/11/11 01:01:13;;;;;;;;;;;;;;;20.96;57.19;101633.91;2076137;28;770;-63
2021/11/11 01:02:14;;;;;;;;;;;;;;;20.95;57.09;101629.44;2075891;28;847;-63
2021/11/11 01:03:15;;;;;;;;;;;;;;;20.96;56.96;101624.97;2075885;28;795;-63
2021/11/11 01:04:15;;;;;;;;;;;;;;;20.97;57.52;101621.34;2075565;28;779;-63
2021/11/11 01:05:15;;;;;;;;;;;;;;;20.96;57.31;101625.81;2075905;28;961;-62
2021/11/11 01:06:17;;;;;;;;;;;;;;;20.89;57.40;101613.44;2075937;28;814;-63
2021/11/11 01:07:17;;;;;;;;;;;;;;;20.94;57.27;101621.41;2075762;28;852;-63
2021/11/11 01:08:17;;;;;;;;;;;;;;;20.95;56.86;101620.50;2075874;28;918;-63
2021/11/11 01:09:17;;;;;;;;;;;;;;;20.91;57.64;101621.47;2075849;28;776;-63
2021/11/11 01:10:18;;;;;;;;;;;;;;;20.94;57.23;101626.81;2075793;28;982;-63
2021/11/11 01:11:19;;;;;;;;;;;;;;;20.97;57.28;101619.53;2075825;28;1212;-63
2021/11/11 01:12:19;;;;;;;;;;;;;;;20.96;56.57;101620.44;2075748;28;973;-63
2021/11/11 01:13:19;;;;;;;;;;;;;;;20.95;56.65;101624.06;2075646;28;812;-63
2021/11/11 01:14:19;;;;;;;;;;;;;;;20.95;57.02;101623.19;2075816;28;853;-63
2021/11/11 01:15:22;;;;;;;;;;;;;;;20.94;57.23;101622.28;2075762;28;843;-63
2021/11/11 01:16:23;;;;;;;;;;;;;;;20.96;56.44;101625.81;2075820;28;824;-63
2021/11/11 01:17:23;;;;;;;;;;;;;;;20.97;56.77;101621.34;2075678;28;894;-63
2021/11/11 01:18:23;;;;;;;;;;;;;;;20.93;56.69;101623.22;2075669;28;1898;-63
2021/11/11 01:19:24;;;;;;;;;;;;;;;20.94;57.32;101624.09;2075779;28;989;-63
2021/11/11 01:20:24;;;;;;;;;;;;;;;20.94;57.35;101629.50;2075749;28;776;-63
2021/11/11 01:21:24;;;;;;;;;;;;;;;20.94;57.85;101624.97;2075442;28;780;-62
2021/11/11 01:22:24;;;;;;;;;;;;;;;20.96;56.57;101624.97;2075714;28;910;-63
2021/11/11 01:23:24;;;;;;;;;;;;;;;20.94;56.86;101624.09;2075606;28;886;-62
2021/11/11 01:24:25;;;;;;;;;;;;;;;20.92;57.02;101623.25;2075694;28;982;-63
2021/11/11 01:25:27;;;;;;;;;;;;;;;20.94;57.64;101619.59;2075595;28;899;-62
2021/11/11 01:26:27;;;;;;;;;;;;;;;20.91;56.98;101622.34;2075622;28;998;-63
2021/11/11 01:27:27;;;;;;;;;;;;;;;20.91;57.55;101616.09;2075631;28;835;-62
2021/11/11 01:28:27;;;;;;;;;;;;;;;20.91;57.39;101621.47;2075654;28;966;-63
2021/11/11 01:29:27;;;;;;;;;;;;;;;20.92;57.73;101621.44;2075753;28;897;-62
2021/11/11 01:30:28;;;;;;;;;;;;;;;20.92;57.42;101621.44;2075625;28;1060;-63
2021/11/11 01:31:28;;;;;;;;;;;;;;;20.91;57.64;101622.34;2075601;28;875;-63
2021/11/11 01:32:28;;;;;;;;;;;;;;;20.91;57.45;101618.78;2075563;28;958;-63
2021/11/11 01:33:28;;;;;;;;;;;;;;;20.90;57.00;101626.00;2075648;28;850;-63
2021/11/11 01:34:29;;;;;;;;;;;;;;;20.91;56.67;101616.97;2075432;28;1387;-63
2021/11/11 01:35:29;;;;;;;;;;;;;;;20.92;57.08;101616.03;2075536;28;821;-63
2021/11/11 01:36:29;;;;;;;;;;;;;;;20.88;57.36;101617.06;2075720;28;863;-63
2021/11/11 01:37:30;;;;;;;;;;;;;;;20.88;57.41;101612.56;2075443;28;843;-63
2021/11/11 01:38:30;;;;;;;;;;;;;;;20.88;58.00;101615.25;2068341;28;1898;-63
2021/11/11 01:39:30;;;;;;;;;;;;;;;20.86;57.99;101622.47;2067480;28;1155;-64
2021/11/11 01:40:31;;;;;;;;;;;;;;;20.86;57.54;101625.16;2067369;28;763;-63
2021/11/11 01:41:31;;;;;;;;;;;;;;;20.88;57.06;101625.16;2067368;28;1219;-63
2021/11/11 01:42:48;;;;;;;;;;;;;;;20.89;57.78;101629.59;2067523;28;832;-62
2021/11/11 01:43:48;;;;;;;;;;;;;;;20.88;57.07;101627.84;2067471;28;783;-61
2021/11/11 01:44:49;;;;;;;;;;;;;;;20.86;57.23;101632.38;2067465;28;1013;-60
2021/11/11 01:45:49;;;;;;;;;;;;;;;20.83;57.59;101638.69;2067321;28;1207;-60
2021/11/11 01:46:50;;;;;;;;;;;;;;;20.86;57.63;101635.94;2067379;28;847;-60
2021/11/11 01:47:50;;;;;;;;;;;;;;;20.86;57.86;101632.38;2067404;28;899;-60
2021/11/11 01:48:50;;;;;;;;;;;;;;;20.91;57.37;101625.03;2067403;28;1100;-59
2021/11/11 01:49:50;;;;;;;;;;;;;;;20.94;57.75;101633.06;2067378;28;789;-58
2021/11/11 01:50:51;;;;;;;;;;;;;;;20.94;57.00;101626.81;2067346;28;1052;-58
2021/11/11 01:51:52;;;;;;;;;;;;;;;20.96;56.89;101625.81;2067320;28;827;-59
2021/11/11 01:52:52;;;;;;;;;;;;;;;20.94;57.20;101626.81;2067405;28;796;-60
2021/11/11 01:53:52;;;;;;;;;;;;;;;20.95;57.09;101621.38;2067352;28;824;-60
2021/11/11 01:54:52;;;;;;;;;;;;;;;20.95;57.00;101621.38;2067387;28;905;-61
2021/11/11 01:55:53;;;;;;;;;;;;;;;20.96;57.18;101620.44;2067299;28;784;-62
2021/11/11 01:56:53;;;;;;;;;;;;;;;20.92;57.50;101628.63;2067226;28;1104;-63
2021/11/11 01:57:53;;;;;;;;;;;;;;;20.85;57.65;101617.13;2067256;28;1887;-63
2021/11/11 01:58:53;;;;;;;;;;;;;;;20.85;58.13;101623.38;2067209;28;974;-63
2021/11/11 01:59:53;;;;;;;;;;;;;;;20.81;57.79;101632.44;2066466;28;1154;-63
2021/11/11 02:00:56;;;;;;;;;;;;;;;20.81;57.92;101637.84;2066796;28;815;-63
2021/11/11 02:01:56;;;;;;;;;;;;;;;20.81;58.18;101642.34;2067308;28;997;-63
2021/11/11 02:02:57;;;;;;;;;;;;;;;20.82;58.42;101638.75;2067046;28;780;-63
2021/11/11 02:03:58;;;;;;;;;;;;;;;20.78;58.00;101637.03;2066703;28;1392;-63
2021/11/11 02:04:58;;;;;;;;;;;;;;;20.83;57.34;101640.50;2067282;28;864;-63
2021/11/11 02:05:58;;;;;;;;;;;;;;;20.79;57.37;101639.69;2067301;28;757;-63
2021/11/11 02:06:58;;;;;;;;;;;;;;;20.77;57.55;101646.91;2067129;28;852;-63
2021/11/11 02:07:59;;;;;;;;;;;;;;;20.77;57.66;101646.91;2067152;28;879;-64
2021/11/11 02:08:59;;;;;;;;;;;;;;;20.77;57.57;101646.00;2066707;28;1029;-63
2021/11/11 02:09:59;;;;;;;;;;;;;;;20.72;57.84;101649.66;2066613;28;878;-63
2021/11/11 02:10:59;;;;;;;;;;;;;;;20.75;57.79;101648.69;2067283;28;1001;-63
2021/11/11 02:12:00;;;;;;;;;;;;;;;20.73;57.64;101645.16;2067293;28;954;-64
2021/11/11 02:13:01;;;;;;;;;;;;;;;20.74;57.32;101645.13;2067138;28;1061;-63
2021/11/11 02:14:01;;;;;;;;;;;;;;;20.73;57.41;101637.09;2067032;28;1223;-63
2021/11/11 02:15:01;;;;;;;;;;;;;;;20.71;58.16;101639.81;2067270;28;924;-63
2021/11/11 02:16:02;;;;;;;;;;;;;;;20.74;57.26;101636.16;2067128;28;974;-65
2021/11/11 02:17:02;;;;;;;;;;;;;;;20.71;57.55;101630.84;2067045;28;1012;-64
2021/11/11 02:18:04;;;;;;;;;;;;;;;20.72;58.28;101635.31;2067125;28;1946;-64
2021/11/11 02:19:06;;;;;;;;;;;;;;;20.74;56.97;101641.53;2067228;28;760;-64
2021/11/11 02:20:09;;;;;;;;;;;;;;;20.72;57.97;101635.31;2067204;28;815;-63
2021/11/11 02:21:09;;;;;;;;;;;;;;;20.72;57.92;101638.91;2067264;28;917;-64
2021/11/11 02:22:10;;;;;;;;;;;;;;;20.71;58.18;101629.06;2066792;28;803;-64
2021/11/11 02:23:12;;;;;;;;;;;;;;;20.72;58.35;101628.13;2067223;28;842;-63
2021/11/11 02:24:12;;;;;;;;;;;;;;;20.71;57.98;101623.66;2067131;28;858;-63
2021/11/11 02:25:14;;;;;;;;;;;;;;;20.72;57.54;101625.44;2067141;28;1013;-64
2021/11/11 02:26:14;;;;;;;;;;;;;;;20.70;57.64;101624.59;2067179;28;969;-64
2021/11/11 02:27:14;;;;;;;;;;;;;;;20.69;57.39;101627.28;2066860;28;836;-64
2021/11/11 02:28:17;;;;;;;;;;;;;;;20.68;58.29;101626.41;2067004;28;768;-64
2021/11/11 02:29:17;;;;;;;;;;;;;;;20.68;59.20;101626.41;2067073;28;830;-64
2021/11/11 02:30:19;;;;;;;;;;;;;;;20.66;58.76;101622.88;2067160;28;879;-63
2021/11/11 02:31:19;;;;;;;;;;;;;;;20.66;57.28;101616.59;2067060;28;1551;-64
2021/11/11 02:32:19;;;;;;;;;;;;;;;20.66;58.16;101617.50;2067097;28;801;-63
2021/11/11 02:33:21;;;;;;;;;;;;;;;20.68;57.62;101618.34;2067152;28;1064;-64
2021/11/11 02:34:23;;;;;;;;;;;;;;;20.69;57.19;101621.91;2067170;28;865;-64
2021/11/11 02:35:24;;;;;;;;;;;;;;;20.70;58.13;101618.31;2066759;28;859;-64
2021/11/11 02:36:24;;;;;;;;;;;;;;;20.69;57.99;101614.72;2067095;28;916;-64
2021/11/11 02:37:28;;;;;;;;;;;;;;;20.67;57.73;101604.91;2067058;28;965;-64
2021/11/11 02:38:28;;;;;;;;;;;;;;;20.67;58.32;101599.50;2073825;28;1894;-63
2021/11/11 02:39:29;;;;;;;;;;;;;;;20.69;57.67;101606.66;2075218;28;768;-64
2021/11/11 02:40:30;;;;;;;;;;;;;;;20.71;58.44;101609.31;2074967;28;1285;-63
2021/11/11 02:41:30;;;;;;;;;;;;;;;20.69;57.92;101606.66;2075230;28;893;-63
2021/11/11 02:42:30;;;;;;;;;;;;;;;20.69;58.51;101611.13;2075180;28;791;-64
2021/11/11 02:43:31;;;;;;;;;;;;;;;20.66;57.77;101611.19;2074800;28;795;-64
2021/11/11 02:44:32;;;;;;;;;;;;;;;20.67;58.80;101621.06;2075163;28;799;-63
2021/11/11 02:45:33;;;;;;;;;;;;;;;20.69;58.61;101616.53;2075171;28;772;-64
2021/11/11 02:46:33;;;;;;;;;;;;;;;20.69;57.50;101616.53;2075189;28;784;-64
2021/11/11 02:47:34;;;;;;;;;;;;;;;20.69;58.25;101617.44;2075144;28;890;-63
2021/11/11 02:48:35;;;;;;;;;;;;;;;20.67;57.09;101610.28;2075004;28;969;-63
2021/11/11 02:49:35;;;;;;;;;;;;;;;20.70;57.80;101621.00;2074317;28;777;-63
2021/11/11 02:50:36;;;;;;;;;;;;;;;20.70;58.60;101623.69;2066383;28;1649;-63
2021/11/11 02:51:36;;;;;;;;;;;;;;;20.70;58.57;101627.28;2074403;28;851;-63
2021/11/11 02:52:36;;;;;;;;;;;;;;;20.67;58.34;101619.25;2074482;28;1177;-63
2021/11/11 02:53:39;;;;;;;;;;;;;;;20.66;58.15;101620.19;2074549;28;783;-63
2021/11/11 02:54:40;;;;;;;;;;;;;;;20.69;57.63;101621.91;2074937;28;875;-63
2021/11/11 02:55:40;;;;;;;;;;;;;;;20.70;58.08;101618.31;2075091;28;865;-63
2021/11/11 02:56:40;;;;;;;;;;;;;;;20.69;57.19;101606.66;2075012;28;1247;-63
2021/11/11 02:57:42;;;;;;;;;;;;;;;20.69;57.96;101608.44;2074815;28;1902;-63
2021/11/11 02:58:42;;;;;;;;;;;;;;;20.67;57.46;101605.81;2075089;28;784;-63
2021/11/11 02:59:42;;;;;;;;;;;;;;;20.66;57.21;101600.44;2074966;28;1036;-63
2021/11/11 03:00:42;;;;;;;;;;;;;;;20.66;57.16;101593.25;2075131;28;849;-63
2021/11/11 03:01:42;;;;;;;;;;;;;;;20.68;57.75;101593.22;2075011;28;1121;-63
2021/11/11 03:02:44;;;;;;;;;;;;;;;20.67;58.34;101584.28;2075105;28;837;-64
2021/11/11 03:03:45;;;;;;;;;;;;;;;20.65;57.67;101586.09;2074881;28;893;-63
2021/11/11 03:04:45;;;;;;;;;;;;;;;20.65;58.25;101585.19;2075066;28;795;-63
2021/11/11 03:05:45;;;;;;;;;;;;;;;20.63;58.11;101579.88;2075027;28;910;-63
2021/11/11 03:06:45;;;;;;;;;;;;;;;20.64;57.53;101581.63;2074653;28;1123;-63
2021/11/11 03:07:45;;;;;;;;;;;;;;;20.66;57.12;101576.22;2074979;28;855;-63
2021/11/11 03:08:46;;;;;;;;;;;;;;;20.66;58.12;101578.91;2075090;28;776;-64
2021/11/11 03:09:47;;;;;;;;;;;;;;;20.65;57.81;101574.44;2075001;28;776;-63
2021/11/11 03:10:47;;;;;;;;;;;;;;;20.64;57.65;101581.63;2075004;28;1188;-63
2021/11/11 03:11:47;;;;;;;;;;;;;;;20.64;58.23;101575.34;2074919;28;1017;-63
2021/11/11 03:12:49;;;;;;;;;;;;;;;20.62;58.21;101578.09;2074819;28;1013;-63
2021/11/11 03:13:49;;;;;;;;;;;;;;;20.66;58.20;101576.22;2075035;28;997;-63
2021/11/11 03:14:52;;;;;;;;;;;;;;;20.67;57.64;101573.50;2075387;28;863;-63
2021/11/11 03:15:54;;;;;;;;;;;;;;;20.65;57.75;101567.25;2076576;28;783;-62
2021/11/11 03:16:55;;;;;;;;;;;;;;;20.66;57.87;101571.72;2076646;28;1603;-64
2021/11/11 03:17:55;;;;;;;;;;;;;;;20.66;58.56;101569.03;2076407;28;1886;-63
2021/11/11 03:18:56;;;;;;;;;;;;;;;20.68;57.98;101577.06;2076665;28;807;-63
2021/11/11 03:19:56;;;;;;;;;;;;;;;20.67;57.89;101576.19;2076680;28;905;-63
2021/11/11 03:20:56;;;;;;;;;;;;;;;20.70;57.68;101586.00;2076419;28;973;-63
2021/11/11 03:21:56;;;;;;;;;;;;;;;20.66;57.93;101581.59;2076687;28;1037;-63
2021/11/11 03:22:57;;;;;;;;;;;;;;;20.66;57.32;101577.13;2076642;28;860;-63
2021/11/11 03:23:57;;;;;;;;;;;;;;;20.66;57.43;101585.19;2076412;28;1103;-63
2021/11/11 03:24:59;;;;;;;;;;;;;;;20.65;57.26;101574.44;2076636;28;843;-63
2021/11/11 03:25:59;;;;;;;;;;;;;;;20.68;57.68;101582.44;2076584;28;808;-63
2021/11/11 03:26:59;;;;;;;;;;;;;;;20.65;57.94;101582.50;2076493;28;772;-63
2021/11/11 03:28:00;;;;;;;;;;;;;;;20.66;58.65;101579.81;2076656;28;772;-63
2021/11/11 03:29:00;;;;;;;;;;;;;;;20.69;57.45;101576.13;2076701;28;803;-62
2021/11/11 03:30:00;;;;;;;;;;;;;;;20.71;58.14;101582.38;2076567;28;764;-63
2021/11/11 03:31:00;;;;;;;;;;;;;;;20.67;57.81;101581.56;2076609;28;976;-63
2021/11/11 03:32:01;;;;;;;;;;;;;;;20.65;57.67;101580.72;2076385;28;935;-63
2021/11/11 03:33:03;;;;;;;;;;;;;;;20.64;57.84;101575.34;2076600;28;854;-63
2021/11/11 03:34:03;;;;;;;;;;;;;;;20.68;56.95;101577.06;2076565;28;850;-64
2021/11/11 03:35:03;;;;;;;;;;;;;;;20.67;57.64;101577.97;2076459;28;1043;-63
2021/11/11 03:36:04;;;;;;;;;;;;;;;20.66;57.34;101574.41;2076610;28;1261;-63
2021/11/11 03:37:04;;;;;;;;;;;;;;;20.67;57.46;101572.59;2076539;28;855;-63
2021/11/11 03:38:05;;;;;;;;;;;;;;;20.66;57.72;101566.34;2072729;28;1902;-63
2021/11/11 03:39:06;;;;;;;;;;;;;;;20.68;58.06;101552.84;2068468;28;969;-63
2021/11/11 03:40:09;;;;;;;;;;;;;;;20.68;57.85;101556.44;2068335;28;1002;-63
2021/11/11 03:41:09;;;;;;;;;;;;;;;20.70;56.80;101557.28;2068452;28;797;-63
2021/11/11 03:42:10;;;;;;;;;;;;;;;20.69;57.96;101557.28;2068375;28;911;-63
2021/11/11 03:43:12;;;;;;;;;;;;;;;20.69;57.82;101546.53;2067761;28;1091;-64
2021/11/11 03:44:15;;;;;;;;;;;;;;;20.68;57.60;101553.72;2067839;28;1041;-63
2021/11/11 03:45:17;;;;;;;;;;;;;;;20.70;57.81;101546.50;2067802;28;1423;-63
2021/11/11 03:46:17;;;;;;;;;;;;;;;20.68;57.20;101544.75;2067873;28;768;-63
2021/11/11 03:47:19;;;;;;;;;;;;;;;20.69;57.87;101546.53;2068277;28;978;-64
2021/11/11 03:48:19;;;;;;;;;;;;;;;20.68;57.61;101544.75;2068226;28;803;-63
2021/11/11 03:49:20;;;;;;;;;;;;;;;20.70;57.96;101534.84;2068323;28;900;-64
2021/11/11 03:50:20;;;;;;;;;;;;;;;20.69;58.23;101531.28;2068349;28;816;-63
2021/11/11 03:51:22;;;;;;;;;;;;;;;20.68;57.40;101526.81;2068202;28;796;-64
2021/11/11 03:52:22;;;;;;;;;;;;;;;20.72;57.33;101533.00;2068351;28;829;-63
2021/11/11 03:53:23;;;;;;;;;;;;;;;20.66;57.29;101520.56;2068222;28;839;-63
2021/11/11 03:54:25;;;;;;;;;;;;;;;20.68;58.18;101517.84;2067965;28;799;-63
2021/11/11 03:55:25;;;;;;;;;;;;;;;20.67;57.66;101513.38;2068269;28;843;-63
2021/11/11 03:56:26;;;;;;;;;;;;;;;20.70;57.71;101511.50;2067528;28;1372;-63
2021/11/11 03:57:26;;;;;;;;;;;;;;;20.71;56.68;101518.66;2067775;28;974;-64
2021/11/11 03:58:26;;;;;;;;;;;;;;;20.70;58.07;101518.69;2068293;28;1973;-63
2021/11/11 03:59:26;;;;;;;;;;;;;;;20.70;58.02;101524.06;2067889;28;982;-63
2021/11/11 04:00:27;;;;;;;;;;;;;;;20.71;57.27;101528.53;2068250;28;1027;-64
2021/11/11 04:01:28;;;;;;;;;;;;;;;20.71;57.37;101526.75;2068273;28;923;-63
2021/11/11 04:02:28;;;;;;;;;;;;;;;20.70;57.55;101522.28;2068010;28;843;-64
2021/11/11 04:03:29;;;;;;;;;;;;;;;20.71;56.95;101515.97;2068208;28;803;-64
2021/11/11 04:04:29;;;;;;;;;;;;;;;20.71;58.11;101518.66;2068227;28;831;-64
2021/11/11 04:05:29;;;;;;;;;;;;;;;20.70;57.59;101503.44;2068032;28;844;-63
2021/11/11 04:06:30;;;;;;;;;;;;;;;20.74;57.62;101512.31;2068124;28;780;-64
2021/11/11 04:07:30;;;;;;;;;;;;;;;20.68;57.67;101510.66;2068238;28;1037;-63
2021/11/11 04:08:31;;;;;;;;;;;;;;;20.66;57.70;101503.53;2067964;28;777;-64
2021/11/11 04:09:31;;;;;;;;;;;;;;;20.64;58.38;101510.75;2068049;28;796;-64
2021/11/11 04:10:31;;;;;;;;;;;;;;;20.68;58.39;101497.19;2068238;28;986;-64
2021/11/11 04:11:31;;;;;;;;;;;;;;;20.65;58.17;101499.06;2068201;28;1278;-63
2021/11/11 04:12:32;;;;;;;;;;;;;;;20.67;58.65;101484.66;2068276;28;954;-64
2021/11/11 04:13:32;;;;;;;;;;;;;;;20.68;57.71;101474.75;2068145;28;930;-63
2021/11/11 04:14:32;;;;;;;;;;;;;;;20.69;58.39;101471.16;2068006;28;953;-64
2021/11/11 04:15:32;;;;;;;;;;;;;;;20.67;57.75;101481.06;2068118;28;1024;-63
2021/11/11 04:16:33;;;;;;;;;;;;;;;20.69;58.66;101479.22;2068023;28;1146;-63
2021/11/11 04:17:33;;;;;;;;;;;;;;;20.65;57.68;101462.28;2068166;28;780;-64
2021/11/11 04:18:33;;;;;;;;;;;;;;;20.68;57.96;101461.31;2068079;28;1894;-64
2021/11/11 04:19:33;;;;;;;;;;;;;;;20.67;57.84;101467.59;2068025;28;1001;-63
2021/11/11 04:20:34;;;;;;;;;;;;;;;20.73;58.59;101464.78;2068112;28;974;-64
2021/11/11 04:21:34;;;;;;;;;;;;;;;20.69;58.43;101471.16;2068106;28;843;-63
2021/11/11 04:22:34;;;;;;;;;;;;;;;20.70;57.33;101465.75;2067790;28;799;-63
2021/11/11 04:23:34;;;;;;;;;;;;;;;20.66;58.38;101468.53;2068065;28;989;-63
2021/11/11 04:24:35;;;;;;;;;;;;;;;20.65;58.49;101464.97;2068036;28;1028;-64
2021/11/11 04:25:52;;;;;;;;;;;;;;;20.69;57.19;101469.34;2068069;28;795;-63
2021/11/11 04:28:31;;;;;;;;;;;;;;;20.68;57.63;101475.66;2035048;29;1316;-63
2021/11/11 04:29:33;;;;;;;;;;;;;;;20.71;58.20;101480.06;2035356;29;1054;-63
2021/11/11 04:30:35;;;;;;;;;;;;;;;20.70;57.60;101478.31;2035290;29;901;-64
2021/11/11 04:31:41;;;;;;;;;;;;;;;20.70;58.01;101476.50;2035389;29;804;-63
2021/11/11 04:32:42;;;;;;;;;;;;;;;20.69;57.99;101472.03;2027470;29;1631;-64
2021/11/11 04:33:43;;;;;;;;;;;;;;;20.69;57.61;101477.44;2027377;29;933;-63
2021/11/11 04:34:45;;;;;;;;;;;;;;;20.71;57.53;101470.22;2035267;29;828;-64
2021/11/11 04:35:50;;;;;;;;;;;;;;;20.72;57.70;101477.38;2035057;29;887;-64
2021/11/11 04:44:16;;;;;;;;;;;;;;;20.76;57.75;101483.53;2042950;29;813;-64
2021/11/11 04:45:45;;;;;;;;;;;;;;;20.70;57.94;101484.59;2043083;29;808;-63
2021/11/11 04:51:47;;;;;;;;;;;;;;;20.76;57.03;101486.22;2043044;29;752;-63
2021/11/11 04:59:59;;;;;;;;;;;;;;;20.79;57.24;101483.50;2027171;29;876;-63
2021/11/11 05:02:20;;;;;;;;;;;;;;;20.71;57.92;101480.97;2027225;29;836;-63
2021/11/11 05:03:31;;;;;;;;;;;;;;;20.71;58.30;101482.75;2027320;29;856;-63
2021/11/11 05:04:32;;;;;;;;;;;;;;;20.85;57.42;101477.97;2027329;29;840;-63
2021/11/11 05:05:32;;;;;;;;;;;;;;;21.53;55.46;101469.06;2043213;28;983;-63
2021/11/11 05:06:32;;;;;;;;;;;;;;;21.74;55.59;101465.81;2058786;28;1021;-63
2021/11/11 05:07:32;;;;;;;;;;;;;;;21.89;54.15;101468.97;2058812;28;760;-63
2021/11/11 05:08:32;;;;;;;;;;;;;;;21.99;54.20;101462.38;2058555;28;890;-63
2021/11/11 05:09:32;;;;;;;;;;;;;;;22.07;54.12;101459.47;2058603;28;1025;-63
2021/11/11 05:10:33;;;;;;;;;;;;;;;22.15;53.47;101461.94;2058803;28;1232;-62
2021/11/11 05:11:33;;;;;;;;;;;;;;;22.25;53.53;101462.53;2058531;28;1017;-64
2021/11/11 05:12:33;;;;;;;;;;;;;;;22.28;54.63;101452.53;2058669;28;816;-63
2021/11/11 05:13:33;;;;;;;;;;;;;;;22.30;53.21;101456.06;2058761;28;882;-63
2021/11/11 05:14:33;;;;;;;;;;;;;;;22.39;53.23;101444.09;2058766;28;821;-64
2021/11/11 05:15:33;;;;;;;;;;;;;;;22.36;54.43;101439.69;2058780;28;1094;-63
2021/11/11 05:16:34;;;;;;;;;;;;;;;22.43;53.20;101436.75;2058750;28;1057;-63
2021/11/11 05:17:34;;;;;;;;;;;;;;;22.48;52.20;101432.13;2058471;28;726;-63
2021/11/11 05:18:34;;;;;;;;;;;;;;;22.53;52.60;101432.00;2058632;28;1955;-63
2021/11/11 05:19:34;;;;;;;;;;;;;;;22.52;53.70;101433.81;2058700;28;819;-61
2021/11/11 05:20:34;;;;;;;;;;;;;;;22.55;52.24;101436.41;2058643;28;1011;-61
2021/11/11 05:21:35;;;;;;;;;;;;;;;22.62;53.13;101435.28;2058685;28;1023;-61
2021/11/11 05:22:35;;;;;;;;;;;;;;;22.56;53.30;101438.19;2058563;28;982;-61
2021/11/11 05:23:35;;;;;;;;;;;;;;;22.58;53.13;101446.25;2058501;28;859;-60
2021/11/11 05:24:35;;;;;;;;;;;;;;;22.64;52.80;101443.34;2058747;28;982;-58
2021/11/11 05:25:37;;;;;;;;;;;;;;;22.69;52.87;101440.47;2058716;28;852;-58
2021/11/11 05:26:39;;;;;;;;;;;;;;;22.70;52.31;101442.25;2058685;28;895;-57
2021/11/11 05:27:42;;;;;;;;;;;;;;;22.72;51.90;101445.78;2058715;28;946;-59
2021/11/11 05:28:42;;;;;;;;;;;;;;;22.72;52.58;101443.94;2070015;28;1086;-59
2021/11/11 05:29:43;;;;;;;;;;;;;;;22.71;52.83;101444.00;2075648;28;867;-59
2021/11/11 05:30:43;;;;;;;;;;;;;;;22.74;53.32;101438.50;2075703;28;873;-59
2021/11/11 05:31:43;;;;;;;;;;;;;;;22.71;52.69;101435.91;2075624;28;878;-60
2021/11/11 05:32:44;;;;;;;;;;;;;;;22.70;52.79;101435.00;2075691;28;1298;-61
2021/11/11 05:33:44;;;;;;;;;;;;;;;22.70;52.93;101426.03;2075621;28;1068;-61
2021/11/11 05:34:45;;;;;;;;;;;;;;;22.77;52.73;101427.59;2075634;28;843;-61
2021/11/11 05:35:45;;;;;;;;;;;;;;;22.74;52.61;101425.88;2075450;28;804;-61
2021/11/11 05:36:45;;;;;;;;;;;;;;;22.72;52.21;101418.78;2075635;28;970;-61
2021/11/11 05:37:46;;;;;;;;;;;;;;;22.69;53.37;101411.63;2075237;28;1954;-61
2021/11/11 05:38:46;;;;;;;;;;;;;;;22.69;52.20;101406.25;2075342;28;981;-61
2021/11/11 05:39:46;;;;;;;;;;;;;;;22.70;52.91;101404.44;2075555;28;816;-61
2021/11/11 05:40:46;;;;;;;;;;;;;;;22.75;52.13;101403.34;2075628;28;856;-60
2021/11/11 05:41:47;;;;;;;;;;;;;;;22.74;52.20;101400.69;2075602;28;880;-61
2021/11/11 05:42:48;;;;;;;;;;;;;;;22.78;51.99;101396.97;2075652;28;985;-60